Time;durP1;ratioP1;P1;durP2;ratioP2;P2;SDS_P1;SDS_P2;PMS_P1;PMS_P2;Temp;Humidity;BMP_temperature;BMP_pressure;BME280_temperature;BME280_humidity;BME280_pressure;Samples;Min_cycle;Max_cycle;Signal;HPM_P1;HPM_P2
2020/12/10 00:00:12;;;;;;;100.20;89.30;;;20.20;51.90;;;;;;460483;56;21047;-25
2020/12/10 00:00:43;;;;;;;102.72;91.53;;;20.20;51.80;;;;;;472108;56;20980;-20
2020/12/10 00:01:14;;;;;;;102.62;91.50;;;20.20;51.80;;;;;;465982;56;21088;-19
2020/12/10 00:01:46;;;;;;;97.10;86.53;;;20.20;51.80;;;;;;474820;56;21095;-23
2020/12/10 00:02:17;;;;;;;101.32;90.12;;;20.20;51.80;;;;;;498179;56;21202;-22
2020/12/10 00:02:48;;;;;;;101.03;89.90;;;20.20;51.80;;;;;;459555;60;20992;-26
2020/12/10 00:03:19;;;;;;;99.15;88.50;;;20.20;51.80;;;;;;477796;56;21429;-20
2020/12/10 00:03:49;;;;;;;100.07;89.20;;;20.20;51.80;;;;;;464960;56;21561;-23
2020/12/10 00:04:20;;;;;;;99.82;88.95;;;20.20;51.80;;;;;;466916;56;20992;-22
2020/12/10 00:04:51;;;;;;;98.78;85.57;;;20.20;51.80;;;;;;500284;56;21035;-21
2020/12/10 00:05:22;;;;;;;100.47;89.30;;;20.20;52.20;;;;;;462938;56;21020;-29
2020/12/10 00:05:54;;;;;;;101.05;90.07;;;20.20;51.80;;;;;;459760;57;21044;-23
2020/12/10 00:06:24;;;;;;;100.25;89.25;;;20.20;51.90;;;;;;467042;56;21502;-26
2020/12/10 00:06:55;;;;;;;101.03;90.07;;;20.20;51.90;;;;;;466517;56;22107;-27
2020/12/10 00:07:26;;;;;;;96.03;85.55;;;20.20;51.90;;;;;;486064;56;21510;-24
2020/12/10 00:07:58;;;;;;;99.93;89.00;;;20.20;51.80;;;;;;459490;60;20999;-24
2020/12/10 00:08:28;;;;;;;99.75;88.85;;;20.20;51.80;;;;;;463959;56;21101;-18
2020/12/10 00:08:59;;;;;;;97.68;87.15;;;20.20;51.80;;;;;;461645;56;21032;-19
2020/12/10 00:09:31;;;;;;;98.15;87.45;;;20.20;51.80;;;;;;459556;57;21478;-24
2020/12/10 00:10:04;;;;;;;95.30;84.80;;;20.20;51.80;;;;;;466460;56;20984;-24
2020/12/10 00:10:35;;;;;;;95.72;85.28;;;20.20;51.80;;;;;;505451;56;20964;-32
2020/12/10 00:11:07;;;;;;;97.45;86.85;;;20.20;51.80;;;;;;459839;56;20988;-23
2020/12/10 00:11:38;;;;;;;95.97;85.40;;;20.20;51.80;;;;;;459626;60;21032;-26
2020/12/10 00:12:09;;;;;;;95.47;84.97;;;20.20;51.80;;;;;;459454;60;21079;-26
2020/12/10 00:12:42;;;;;;;97.47;87.10;;;20.20;51.70;;;;;;488314;56;21082;-27
2020/12/10 00:13:13;;;;;;;98.70;87.82;;;20.20;51.80;;;;;;466874;56;20988;-26
2020/12/10 00:13:44;;;;;;;95.07;84.72;;;20.20;51.80;;;;;;462111;56;21056;-18
2020/12/10 00:14:14;;;;;;;95.15;84.62;;;20.20;51.80;;;;;;462469;56;20979;-28
2020/12/10 00:14:46;;;;;;;95.78;85.38;;;20.20;51.70;;;;;;463608;56;20976;-26
2020/12/10 00:15:17;;;;;;;95.03;84.50;;;20.20;51.70;;;;;;459407;60;21023;-20
2020/12/10 00:15:48;;;;;;;94.65;84.43;;;20.20;51.70;;;;;;491165;56;21053;-28
2020/12/10 00:16:18;;;;;;;94.40;84.18;;;20.20;51.70;;;;;;463334;56;21028;-24
2020/12/10 00:16:49;;;;;;;96.05;85.45;;;20.20;51.70;;;;;;463973;56;21008;-23
2020/12/10 00:17:28;;;;;;;95.30;85.07;;;20.20;51.80;;;;;;474110;56;21408;-26
2020/12/10 00:17:59;;;;;;;97.57;86.90;;;20.20;51.70;;;;;;472550;56;21004;-27
2020/12/10 00:18:30;;;;;;;94.25;83.95;;;20.20;51.70;;;;;;459396;60;21087;-25
2020/12/10 00:19:01;;;;;;;97.60;86.97;;;20.20;51.70;;;;;;466525;56;21005;-25
2020/12/10 00:19:31;;;;;;;96.60;86.10;;;20.20;51.80;;;;;;464318;56;21065;-21
2020/12/10 00:20:05;;;;;;;93.65;83.28;;;20.20;51.80;;;;;;468605;56;20976;-23
2020/12/10 00:20:36;;;;;;;95.57;85.15;;;20.20;51.70;;;;;;476581;56;20992;-24
2020/12/10 00:21:07;;;;;;;96.20;85.60;;;20.20;51.70;;;;;;475836;56;21357;-21
2020/12/10 00:21:38;;;;;;;95.68;85.25;;;20.20;51.70;;;;;;467967;56;21059;-23
2020/12/10 00:22:09;;;;;;;95.40;85.15;;;20.20;51.70;;;;;;469482;56;21044;-22
2020/12/10 00:22:40;;;;;;;96.80;86.20;;;20.20;51.70;;;;;;505419;56;21006;-25
2020/12/10 00:23:11;;;;;;;93.00;82.93;;;20.20;51.70;;;;;;471934;56;21060;-26
2020/12/10 00:23:42;;;;;;;95.30;85.07;;;20.20;51.70;;;;;;485783;56;21484;-27
2020/12/10 00:24:13;;;;;;;96.63;86.10;;;20.20;51.70;;;;;;474593;56;20991;-26
2020/12/10 00:24:44;;;;;;;92.57;82.30;;;20.20;51.60;;;;;;475069;56;21042;-26
2020/12/10 00:25:14;;;;;;;94.72;84.47;;;20.20;51.60;;;;;;505442;56;21012;-25
2020/12/10 00:25:45;;;;;;;93.65;83.35;;;20.20;51.70;;;;;;477728;56;21490;-26
2020/12/10 00:26:20;;;;;;;95.10;84.47;;;20.20;51.60;;;;;;478104;56;21086;-25
2020/12/10 00:26:51;;;;;;;97.60;86.85;;;20.20;51.60;;;;;;470228;56;21500;-22
2020/12/10 00:27:25;;;;;;;93.53;83.32;;;20.20;51.60;;;;;;471383;56;21290;-24
2020/12/10 00:27:56;;;;;;;96.80;85.25;;;20.20;51.60;;;;;;459491;58;21477;-26
2020/12/10 00:28:27;;;;;;;95.45;85.10;;;20.20;51.60;;;;;;459360;60;21477;-25
2020/12/10 00:28:58;;;;;;;93.03;82.93;;;20.20;51.60;;;;;;459822;56;21869;-22
2020/12/10 00:29:28;;;;;;;93.90;83.70;;;20.20;51.70;;;;;;493558;56;21083;-23
2020/12/10 00:29:59;;;;;;;92.97;82.72;;;20.20;51.60;;;;;;470715;56;20960;-20
2020/12/10 00:30:31;;;;;;;94.15;84.05;;;20.20;51.60;;;;;;459502;60;21032;-23
2020/12/10 00:31:02;;;;;;;93.12;82.53;;;20.20;51.60;;;;;;459511;60;20968;-23
2020/12/10 00:31:33;;;;;;;91.20;80.90;;;20.20;51.60;;;;;;459410;60;20999;-21
2020/12/10 00:32:04;;;;;;;92.70;82.50;;;20.20;51.60;;;;;;470121;56;21056;-21
2020/12/10 00:32:34;;;;;;;92.05;81.87;;;20.20;51.60;;;;;;505319;56;21008;-23
2020/12/10 00:33:05;;;;;;;91.85;81.87;;;20.20;51.60;;;;;;474712;56;21177;-25
2020/12/10 00:33:37;;;;;;;93.03;82.90;;;20.20;51.60;;;;;;460115;56;21453;-22
2020/12/10 00:34:08;;;;;;;90.28;80.60;;;20.20;51.60;;;;;;459703;56;20984;-19
2020/12/10 00:34:41;;;;;;;92.22;82.25;;;20.20;51.60;;;;;;471349;56;21046;-18
2020/12/10 00:35:12;;;;;;;93.60;83.40;;;20.20;51.60;;;;;;483682;56;20995;-27
2020/12/10 00:35:43;;;;;;;89.60;79.68;;;20.20;51.60;;;;;;484678;56;21485;-24
2020/12/10 00:36:14;;;;;;;90.50;80.90;;;20.20;51.60;;;;;;462664;56;21019;-21
2020/12/10 00:36:45;;;;;;;93.43;83.25;;;20.20;51.60;;;;;;459470;60;21014;-24
2020/12/10 00:37:17;;;;;;;92.70;82.45;;;20.20;51.60;;;;;;459509;60;21045;-22
2020/12/10 00:37:48;;;;;;;92.68;82.30;;;20.20;51.60;;;;;;468681;56;21019;-25
2020/12/10 00:38:18;;;;;;;92.03;82.07;;;20.20;51.50;;;;;;459551;60;20987;-26
2020/12/10 00:38:49;;;;;;;93.62;83.43;;;20.20;51.60;;;;;;466473;56;21008;-23
2020/12/10 00:39:20;;;;;;;88.82;79.25;;;20.20;51.50;;;;;;459468;60;21028;-25
2020/12/10 00:39:51;;;;;;;91.85;81.97;;;20.20;51.50;;;;;;459532;60;21051;-27
2020/12/10 00:40:22;;;;;;;93.70;83.75;;;20.20;51.50;;;;;;461566;56;21045;-21
2020/12/10 00:40:54;;;;;;;89.03;79.50;;;20.20;51.50;;;;;;467164;56;20996;-26
2020/12/10 00:41:25;;;;;;;89.15;79.57;;;20.20;51.50;;;;;;470199;56;21004;-24
2020/12/10 00:41:56;;;;;;;95.10;84.70;;;20.20;51.50;;;;;;505346;56;21016;-22
2020/12/10 00:42:27;;;;;;;91.55;81.55;;;20.20;51.50;;;;;;459845;56;21055;-25
2020/12/10 00:42:58;;;;;;;87.75;78.22;;;20.20;51.50;;;;;;459454;60;21768;-25
2020/12/10 00:43:29;;;;;;;88.45;79.07;;;20.20;51.60;;;;;;470163;56;22064;-24
2020/12/10 00:43:59;;;;;;;89.03;79.30;;;20.20;51.60;;;;;;471217;56;21474;-26
2020/12/10 00:44:31;;;;;;;91.53;81.50;;;20.20;51.60;;;;;;465353;56;21433;-22
2020/12/10 00:45:02;;;;;;;89.32;79.70;;;20.20;51.50;;;;;;459550;57;20995;-23
2020/12/10 00:45:33;;;;;;;88.93;79.47;;;20.20;51.50;;;;;;478143;56;20960;-18
2020/12/10 00:46:08;;;;;;;88.43;78.72;;;20.20;51.50;;;;;;471817;56;21097;-21
2020/12/10 00:46:41;;;;;;;94.35;83.82;;;20.20;51.50;;;;;;467105;56;21032;-26
2020/12/10 00:47:16;;;;;;;90.60;80.87;;;20.20;52.20;;;;;;477791;56;21027;-24
2020/12/10 00:47:46;;;;;;;89.03;79.37;;;20.20;51.50;;;;;;468617;56;21005;-21
2020/12/10 00:48:17;;;;;;;90.55;80.28;;;20.20;51.50;;;;;;468778;56;21048;-23
2020/12/10 00:48:50;;;;;;;88.70;79.20;;;20.20;51.50;;;;;;459547;60;21122;-23
2020/12/10 00:49:21;;;;;;;85.12;76.00;;;20.20;51.50;;;;;;459483;60;21007;-20
2020/12/10 00:49:52;;;;;;;88.35;78.75;;;20.20;51.50;;;;;;459616;57;21475;-25
2020/12/10 00:50:23;;;;;;;84.75;75.43;;;20.20;51.50;;;;;;471672;56;20991;-26
2020/12/10 00:50:54;;;;;;;85.43;76.30;;;20.20;51.60;;;;;;468952;56;21443;-21
2020/12/10 00:51:25;;;;;;;88.47;78.75;;;20.20;51.50;;;;;;465530;56;21646;-21
2020/12/10 00:51:56;;;;;;;85.15;76.00;;;20.20;51.50;;;;;;476518;56;20996;-21
2020/12/10 00:52:27;;;;;;;88.35;78.80;;;20.20;51.50;;;;;;465886;56;21028;-24
2020/12/10 00:52:58;;;;;;;88.03;78.60;;;20.20;51.50;;;;;;475694;56;21474;-23
2020/12/10 00:53:29;;;;;;;89.62;79.70;;;20.20;51.60;;;;;;478617;56;21516;-25
2020/12/10 00:54:00;;;;;;;88.35;78.82;;;20.20;51.50;;;;;;481873;56;21042;-22
2020/12/10 00:54:34;;;;;;;87.15;77.80;;;20.20;51.50;;;;;;465047;56;20997;-22
2020/12/10 00:55:05;;;;;;;87.80;78.28;;;20.20;51.40;;;;;;459575;60;21007;-23
2020/12/10 00:55:36;;;;;;;86.70;77.32;;;20.20;51.40;;;;;;460606;56;21477;-20
2020/12/10 00:56:07;;;;;;;90.07;80.12;;;20.20;51.50;;;;;;460548;56;21537;-20
2020/12/10 00:56:38;;;;;;;87.37;77.35;;;20.20;51.40;;;;;;480684;56;21020;-22
2020/12/10 00:57:11;;;;;;;86.68;77.28;;;20.20;51.40;;;;;;461238;56;21047;-23
2020/12/10 00:57:42;;;;;;;87.75;78.12;;;20.20;51.40;;;;;;477302;56;21020;-18
2020/12/10 00:58:13;;;;;;;88.07;78.72;;;20.20;51.40;;;;;;459619;60;21020;-21
2020/12/10 00:58:45;;;;;;;88.25;78.68;;;20.20;51.50;;;;;;476496;56;21004;-22
2020/12/10 00:59:16;;;;;;;84.93;75.80;;;20.20;51.40;;;;;;459485;60;21027;-21
2020/12/10 00:59:51;;;;;;;84.55;75.60;;;20.20;51.40;;;;;;459766;56;21932;-22
2020/12/10 01:00:23;;;;;;;85.72;76.37;;;20.20;51.40;;;;;;472392;56;21023;-26
2020/12/10 01:00:54;;;;;;;86.53;77.25;;;20.20;51.40;;;;;;465287;56;21044;-25
2020/12/10 01:01:25;;;;;;;89.00;79.40;;;20.20;51.40;;;;;;468000;56;21542;-26
2020/12/10 01:01:56;;;;;;;82.57;73.57;;;20.20;51.50;;;;;;475692;56;20964;-27
2020/12/10 01:02:27;;;;;;;84.25;75.03;;;20.20;51.40;;;;;;459881;55;21554;-22
2020/12/10 01:02:58;;;;;;;86.25;76.93;;;20.20;51.40;;;;;;484027;56;21467;-20
2020/12/10 01:03:29;;;;;;;87.03;77.62;;;20.20;51.40;;;;;;469293;56;21060;-21
2020/12/10 01:03:59;;;;;;;86.18;76.85;;;20.20;51.40;;;;;;470019;56;20976;-23
2020/12/10 01:04:30;;;;;;;86.10;76.80;;;20.20;51.40;;;;;;471409;56;21052;-19
2020/12/10 01:05:01;;;;;;;86.10;76.80;;;20.20;51.40;;;;;;461456;56;20983;-20
2020/12/10 01:05:32;;;;;;;81.80;72.93;;;20.20;51.40;;;;;;459462;60;20984;-22
2020/12/10 01:06:03;;;;;;;85.00;75.85;;;20.20;51.40;;;;;;485782;56;21012;-22
2020/12/10 01:06:34;;;;;;;83.57;73.60;;;20.20;51.40;;;;;;459549;60;21012;-26
2020/12/10 01:07:05;;;;;;;85.05;75.72;;;20.20;51.40;;;;;;466289;56;21016;-20
2020/12/10 01:07:36;;;;;;;81.68;72.78;;;20.20;51.40;;;;;;468156;56;20992;-24
2020/12/10 01:08:07;;;;;;;83.53;74.32;;;20.20;51.30;;;;;;459474;60;20992;-24
2020/12/10 01:08:38;;;;;;;84.30;75.15;;;20.20;51.40;;;;;;472909;56;21565;-25
2020/12/10 01:09:09;;;;;;;85.47;76.25;;;20.20;51.40;;;;;;473947;56;21059;-25
2020/12/10 01:09:40;;;;;;;86.95;77.12;;;20.20;51.40;;;;;;505533;56;21131;-26
2020/12/10 01:10:11;;;;;;;82.53;73.62;;;20.20;51.40;;;;;;471322;56;21020;-27
2020/12/10 01:10:42;;;;;;;83.07;74.05;;;20.20;51.30;;;;;;471531;56;21098;-22
2020/12/10 01:11:13;;;;;;;83.50;74.07;;;20.20;51.30;;;;;;472468;56;21023;-24
2020/12/10 01:11:44;;;;;;;84.10;74.93;;;20.20;51.30;;;;;;492594;56;21965;-26
2020/12/10 01:12:15;;;;;;;82.32;73.50;;;20.20;51.30;;;;;;459425;58;22246;-23
2020/12/10 01:12:46;;;;;;;85.55;76.35;;;20.20;51.30;;;;;;459505;60;21424;-24
2020/12/10 01:13:16;;;;;;;79.57;70.78;;;20.20;51.30;;;;;;476288;56;21482;-21
2020/12/10 01:13:47;;;;;;;82.95;73.95;;;20.20;51.30;;;;;;465075;56;21533;-21
2020/12/10 01:14:19;;;;;;;83.37;74.53;;;20.20;51.30;;;;;;477122;56;21119;-22
2020/12/10 01:14:49;;;;;;;82.07;73.15;;;20.20;51.30;;;;;;469206;56;21108;-24
2020/12/10 01:15:20;;;;;;;81.07;72.18;;;20.20;51.30;;;;;;471813;56;20992;-31
2020/12/10 01:15:54;;;;;;;82.28;73.07;;;20.20;51.30;;;;;;485898;56;20980;-25
2020/12/10 01:16:25;;;;;;;82.32;73.47;;;20.20;51.30;;;;;;491967;56;21352;-26
2020/12/10 01:16:57;;;;;;;83.25;74.15;;;20.20;51.30;;;;;;462604;56;21596;-25
2020/12/10 01:17:28;;;;;;;81.03;72.20;;;20.20;51.30;;;;;;459602;60;21059;-25
2020/12/10 01:17:58;;;;;;;80.38;71.72;;;20.20;51.30;;;;;;466661;56;21625;-18
2020/12/10 01:18:29;;;;;;;80.95;72.18;;;20.20;51.30;;;;;;459614;57;21031;-25
2020/12/10 01:19:00;;;;;;;83.22;74.45;;;20.20;51.30;;;;;;461170;56;21011;-24
2020/12/10 01:19:31;;;;;;;84.47;75.22;;;20.20;51.30;;;;;;464214;56;21450;-23
2020/12/10 01:20:03;;;;;;;82.18;73.25;;;20.20;51.30;;;;;;479557;56;20998;-23
2020/12/10 01:20:34;;;;;;;81.70;72.87;;;20.20;51.30;;;;;;505460;56;21114;-20
2020/12/10 01:21:05;;;;;;;81.00;72.22;;;20.20;51.30;;;;;;466365;56;21047;-21
2020/12/10 01:21:36;;;;;;;80.15;71.55;;;20.20;51.30;;;;;;465471;56;21051;-22
2020/12/10 01:22:07;;;;;;;81.65;72.85;;;20.20;51.30;;;;;;468901;56;21474;-28
2020/12/10 01:22:38;;;;;;;83.37;74.28;;;20.20;51.30;;;;;;459468;60;21392;-21
2020/12/10 01:23:09;;;;;;;80.38;71.62;;;20.20;51.30;;;;;;459303;60;21043;-21
2020/12/10 01:23:40;;;;;;;80.10;71.43;;;20.20;51.30;;;;;;471944;56;21079;-23
2020/12/10 01:24:11;;;;;;;82.10;72.87;;;20.20;51.30;;;;;;465929;56;21008;-22
2020/12/10 01:24:43;;;;;;;79.70;71.28;;;20.20;51.20;;;;;;497120;56;21004;-24
2020/12/10 01:25:14;;;;;;;82.03;73.28;;;20.20;51.30;;;;;;497586;56;21107;-24
2020/12/10 01:25:45;;;;;;;80.40;71.70;;;20.20;51.20;;;;;;459604;57;21067;-23
2020/12/10 01:26:16;;;;;;;78.68;70.15;;;20.20;51.20;;;;;;472242;56;21003;-25
2020/12/10 01:26:46;;;;;;;83.25;74.12;;;20.20;51.20;;;;;;475503;56;20975;-22
2020/12/10 01:27:24;;;;;;;78.82;70.35;;;20.20;51.20;;;;;;475167;56;20996;-20
2020/12/10 01:27:54;;;;;;;80.72;72.05;;;20.20;51.20;;;;;;466987;56;21012;-20
2020/12/10 01:28:25;;;;;;;81.85;73.07;;;20.20;51.20;;;;;;460014;56;21075;-26
2020/12/10 01:28:57;;;;;;;79.57;70.87;;;20.20;51.20;;;;;;467689;56;21044;-21
2020/12/10 01:29:28;;;;;;;80.82;72.03;;;20.20;51.20;;;;;;473317;56;21015;-21
2020/12/10 01:29:59;;;;;;;79.72;71.07;;;20.20;51.20;;;;;;474221;56;21012;-18
2020/12/10 01:30:30;;;;;;;80.25;71.70;;;20.20;51.20;;;;;;467514;56;22178;-23
2020/12/10 01:31:00;;;;;;;78.93;70.32;;;20.20;51.20;;;;;;459531;60;21011;-23
2020/12/10 01:31:32;;;;;;;80.97;72.28;;;20.20;51.20;;;;;;468251;56;21091;-20
2020/12/10 01:32:02;;;;;;;81.18;71.57;;;20.20;51.20;;;;;;479150;56;21032;-18
2020/12/10 01:32:34;;;;;;;79.78;70.95;;;20.20;51.20;;;;;;492127;56;21036;-22
2020/12/10 01:33:05;;;;;;;78.75;70.28;;;20.20;51.20;;;;;;459501;60;20968;-20
2020/12/10 01:33:36;;;;;;;79.75;71.07;;;20.20;51.20;;;;;;478026;56;20984;-22
2020/12/10 01:34:07;;;;;;;79.25;70.60;;;20.20;51.20;;;;;;469620;56;21024;-21
2020/12/10 01:34:37;;;;;;;79.15;70.47;;;20.20;51.20;;;;;;460356;56;21123;-24
2020/12/10 01:35:09;;;;;;;78.32;69.80;;;20.20;51.20;;;;;;466134;56;21147;-24
2020/12/10 01:35:40;;;;;;;77.22;68.78;;;20.20;51.20;;;;;;461874;56;21562;-24
2020/12/10 01:36:23;;;;;;;78.10;69.75;;;20.20;51.20;;;;;;469535;56;20991;-25
2020/12/10 01:36:53;;;;;;;76.70;67.82;;;20.20;51.20;;;;;;474757;56;21084;-24
2020/12/10 01:37:25;;;;;;;79.80;71.03;;;20.10;51.10;;;;;;459483;60;21036;-25
2020/12/10 01:37:56;;;;;;;79.53;70.82;;;20.20;51.70;;;;;;479520;56;22640;-21
2020/12/10 01:38:27;;;;;;;76.97;68.62;;;20.10;51.20;;;;;;481739;56;21424;-21
2020/12/10 01:38:59;;;;;;;76.18;67.87;;;20.20;51.20;;;;;;476757;56;20987;-23
2020/12/10 01:39:30;;;;;;;77.82;69.32;;;20.20;51.10;;;;;;481018;56;21015;-19
2020/12/10 01:40:01;;;;;;;77.90;69.45;;;20.20;51.20;;;;;;474747;56;21095;-21
2020/12/10 01:40:32;;;;;;;78.30;69.70;;;20.20;51.20;;;;;;474655;56;21031;-19
2020/12/10 01:41:03;;;;;;;74.47;66.32;;;20.20;51.10;;;;;;475370;56;21027;-20
2020/12/10 01:41:34;;;;;;;76.60;68.35;;;20.20;51.10;;;;;;476851;56;21035;-23
2020/12/10 01:42:05;;;;;;;77.68;69.28;;;20.20;51.10;;;;;;475549;56;21965;-22
2020/12/10 01:42:36;;;;;;;81.37;72.55;;;20.20;51.20;;;;;;471685;56;20980;-20
2020/12/10 01:43:07;;;;;;;76.80;68.43;;;20.20;51.10;;;;;;475916;56;21067;-22
2020/12/10 01:43:40;;;;;;;77.18;69.03;;;20.20;51.80;;;;;;477418;56;21012;-21
2020/12/10 01:44:13;;;;;;;76.55;68.18;;;20.20;51.10;;;;;;478768;56;20992;-19
2020/12/10 01:44:44;;;;;;;73.90;65.85;;;20.10;51.10;;;;;;476985;56;21023;-25
2020/12/10 01:45:15;;;;;;;75.43;67.22;;;20.20;51.70;;;;;;473535;56;21087;-19
2020/12/10 01:45:46;;;;;;;75.75;67.60;;;20.20;51.10;;;;;;459493;60;20992;-20
2020/12/10 01:46:17;;;;;;;77.22;68.68;;;20.20;51.80;;;;;;459665;60;21470;-25
2020/12/10 01:46:48;;;;;;;75.00;66.78;;;20.20;51.10;;;;;;480316;56;21052;-23
2020/12/10 01:47:19;;;;;;;75.40;67.18;;;20.20;51.10;;;;;;459603;60;21044;-21
2020/12/10 01:47:50;;;;;;;76.00;67.85;;;20.20;51.10;;;;;;460587;56;21028;-24
2020/12/10 01:48:21;;;;;;;76.35;68.25;;;20.20;51.10;;;;;;459512;60;21115;-24
2020/12/10 01:48:51;;;;;;;75.05;66.95;;;20.20;51.10;;;;;;486931;56;21063;-24
2020/12/10 01:49:22;;;;;;;74.55;66.55;;;20.20;51.10;;;;;;464089;56;21609;-25
2020/12/10 01:49:53;;;;;;;75.05;66.95;;;20.20;51.10;;;;;;461456;56;21102;-26
2020/12/10 01:50:24;;;;;;;75.72;67.53;;;20.20;51.10;;;;;;459689;60;21064;-22
2020/12/10 01:50:55;;;;;;;75.25;67.25;;;20.20;51.10;;;;;;467354;56;21015;-22
2020/12/10 01:51:26;;;;;;;77.43;69.12;;;20.20;51.10;;;;;;459545;60;21068;-22
2020/12/10 01:51:57;;;;;;;75.55;67.25;;;20.20;51.10;;;;;;459493;60;21827;-23
2020/12/10 01:52:28;;;;;;;73.45;65.47;;;20.20;51.10;;;;;;471280;56;21162;-22
2020/12/10 01:52:59;;;;;;;73.70;65.62;;;20.20;50.60;;;;;;462377;56;21022;-25
2020/12/10 01:53:30;;;;;;;72.03;63.97;;;20.10;51.00;;;;;;476828;56;21318;-24
2020/12/10 01:54:02;;;;;;;72.20;64.05;;;20.10;51.00;;;;;;474813;56;21012;-26
2020/12/10 01:54:34;;;;;;;75.47;67.20;;;20.20;51.10;;;;;;473040;56;22518;-26
2020/12/10 01:55:04;;;;;;;72.75;64.78;;;20.10;51.00;;;;;;474124;56;21362;-25
2020/12/10 01:55:35;;;;;;;73.00;64.90;;;20.20;51.00;;;;;;471644;56;21131;-25
2020/12/10 01:56:06;;;;;;;73.15;65.28;;;20.20;51.00;;;;;;466437;56;21357;-25
2020/12/10 01:56:37;;;;;;;74.60;66.10;;;20.20;51.10;;;;;;485506;56;20978;-18
2020/12/10 01:57:08;;;;;;;72.93;65.12;;;20.10;51.00;;;;;;475734;56;21000;-26
2020/12/10 01:57:39;;;;;;;76.32;68.05;;;20.20;51.00;;;;;;492727;56;20980;-19
2020/12/10 01:58:11;;;;;;;73.07;65.28;;;20.10;50.90;;;;;;472556;56;20980;-23
2020/12/10 01:58:41;;;;;;;73.00;65.12;;;20.20;51.00;;;;;;475697;56;21051;-20
2020/12/10 01:59:16;;;;;;;72.53;64.50;;;20.20;51.30;;;;;;471115;56;21031;-23
2020/12/10 01:59:48;;;;;;;73.37;65.37;;;20.20;51.00;;;;;;467911;56;21597;-20
2020/12/10 02:00:19;;;;;;;71.43;63.87;;;20.20;51.00;;;;;;464232;56;21036;-22
2020/12/10 02:00:51;;;;;;;73.75;65.65;;;20.10;50.90;;;;;;470633;56;20988;-18
2020/12/10 02:01:22;;;;;;;71.03;63.35;;;20.20;51.00;;;;;;467725;56;21036;-23
2020/12/10 02:01:53;;;;;;;74.65;66.57;;;20.20;51.00;;;;;;461900;56;21016;-23
2020/12/10 02:02:24;;;;;;;72.40;64.62;;;20.20;51.60;;;;;;462091;56;21028;-21
2020/12/10 02:02:56;;;;;;;71.82;64.03;;;20.20;51.00;;;;;;465077;56;21016;-19
2020/12/10 02:03:27;;;;;;;72.45;64.40;;;20.20;51.00;;;;;;471938;56;21001;-20
2020/12/10 02:03:58;;;;;;;73.82;65.80;;;20.20;51.00;;;;;;459622;60;21034;-24
2020/12/10 02:04:33;;;;;;;71.47;63.78;;;20.20;51.00;;;;;;468280;56;21028;-25
2020/12/10 02:05:04;;;;;;;72.85;64.20;;;20.20;51.00;;;;;;463548;56;20988;-23
2020/12/10 02:05:45;;;;;;;72.28;64.37;;;20.20;51.00;;;;;;462451;56;21020;-19
2020/12/10 02:06:16;;;;;;;72.87;65.07;;;20.20;51.00;;;;;;464334;56;20988;-26
2020/12/10 02:06:47;;;;;;;72.72;64.70;;;20.20;50.90;;;;;;474317;56;21020;-24
2020/12/10 02:07:18;;;;;;;74.43;66.40;;;20.20;51.00;;;;;;462678;56;21067;-24
2020/12/10 02:07:49;;;;;;;72.40;64.28;;;20.20;51.00;;;;;;459715;56;21024;-25
2020/12/10 02:08:19;;;;;;;71.75;64.00;;;20.20;50.90;;;;;;486735;56;21115;-23
2020/12/10 02:08:50;;;;;;;70.40;62.70;;;20.20;50.90;;;;;;471432;56;21004;-19
2020/12/10 02:09:21;;;;;;;70.00;62.42;;;20.20;51.00;;;;;;472052;56;21056;-22
2020/12/10 02:09:52;;;;;;;70.07;62.55;;;20.20;50.90;;;;;;459875;57;21000;-22
2020/12/10 02:10:23;;;;;;;70.25;62.65;;;20.20;50.90;;;;;;489098;56;21023;-23
2020/12/10 02:10:54;;;;;;;70.25;62.75;;;20.10;50.80;;;;;;464029;56;21640;-23
2020/12/10 02:11:24;;;;;;;70.60;62.92;;;20.20;50.90;;;;;;463748;56;21107;-23
2020/12/10 02:11:56;;;;;;;74.00;66.10;;;20.20;50.90;;;;;;466113;56;21000;-19
2020/12/10 02:12:26;;;;;;;71.43;63.75;;;20.10;50.90;;;;;;463664;56;21155;-19
2020/12/10 02:12:57;;;;;;;71.25;63.45;;;20.20;50.90;;;;;;459694;56;20980;-21
2020/12/10 02:13:28;;;;;;;70.75;62.15;;;20.20;50.90;;;;;;464318;56;21055;-23
2020/12/10 02:13:59;;;;;;;70.97;63.28;;;20.20;50.90;;;;;;464322;56;20975;-25
2020/12/10 02:14:38;;;;;;;68.25;60.67;;;20.20;50.90;;;;;;464520;56;20984;-23
2020/12/10 02:15:09;;;;;;;72.93;64.93;;;20.20;50.90;;;;;;459407;58;21055;-22
2020/12/10 02:15:45;;;;;;;69.05;61.47;;;20.20;50.90;;;;;;475849;56;21084;-24
2020/12/10 02:16:19;;;;;;;68.68;61.25;;;20.20;50.90;;;;;;468413;56;21055;-21
2020/12/10 02:16:53;;;;;;;71.57;63.85;;;20.20;50.90;;;;;;479242;56;21126;-24
2020/12/10 02:17:24;;;;;;;67.37;60.03;;;20.20;50.90;;;;;;460420;56;21518;-24
2020/12/10 02:17:55;;;;;;;69.40;61.92;;;20.20;50.90;;;;;;461848;56;21585;-24
2020/12/10 02:18:29;;;;;;;72.60;64.80;;;20.10;50.80;;;;;;488370;56;20984;-26
2020/12/10 02:19:00;;;;;;;69.35;61.85;;;20.20;50.90;;;;;;470625;56;21499;-23
2020/12/10 02:19:31;;;;;;;68.03;60.67;;;20.20;50.80;;;;;;470113;56;20984;-23
2020/12/10 02:20:02;;;;;;;67.57;60.20;;;20.20;50.90;;;;;;462769;56;21566;-23
2020/12/10 02:20:34;;;;;;;69.70;62.20;;;20.20;50.90;;;;;;462733;56;21004;-25
2020/12/10 02:21:05;;;;;;;70.78;63.17;;;20.10;50.80;;;;;;476264;56;20983;-26
2020/12/10 02:21:36;;;;;;;67.85;60.60;;;20.20;50.80;;;;;;469306;56;20972;-25
2020/12/10 02:22:07;;;;;;;67.97;60.60;;;20.10;50.90;;;;;;459523;60;20980;-24
2020/12/10 02:22:38;;;;;;;68.90;61.42;;;20.20;50.90;;;;;;465405;56;21040;-20
2020/12/10 02:23:10;;;;;;;69.65;62.20;;;20.20;50.80;;;;;;476382;56;21060;-24
2020/12/10 02:23:41;;;;;;;73.47;65.55;;;20.20;50.80;;;;;;490788;56;21032;-22
2020/12/10 02:24:17;;;;;;;70.47;62.88;;;20.20;50.80;;;;;;467535;56;21019;-21
2020/12/10 02:24:47;;;;;;;67.97;60.47;;;20.10;50.80;;;;;;461270;56;20952;-28
2020/12/10 02:25:18;;;;;;;68.57;61.28;;;20.20;50.80;;;;;;463565;56;21028;-22
2020/12/10 02:25:49;;;;;;;68.72;61.40;;;20.20;50.80;;;;;;470500;56;21039;-23
2020/12/10 02:26:27;;;;;;;70.72;62.60;;;20.20;50.80;;;;;;463715;56;21016;-22
2020/12/10 02:26:58;;;;;;;70.15;62.38;;;20.20;50.80;;;;;;460360;56;21000;-21
2020/12/10 02:27:30;;;;;;;68.97;61.67;;;20.20;50.80;;;;;;465480;56;21498;-21
2020/12/10 02:28:10;;;;;;;66.60;59.42;;;20.20;50.80;;;;;;479095;56;21610;-21
2020/12/10 02:28:41;;;;;;;67.55;60.15;;;20.20;50.80;;;;;;462510;56;20995;-27
2020/12/10 02:29:12;;;;;;;67.53;60.15;;;20.20;50.80;;;;;;463318;56;21064;-22
2020/12/10 02:29:43;;;;;;;70.10;62.47;;;20.20;50.80;;;;;;469769;56;21072;-23
2020/12/10 02:30:14;;;;;;;65.80;58.83;;;20.20;50.80;;;;;;464063;56;20984;-25
2020/12/10 02:30:47;;;;;;;65.53;58.47;;;20.20;50.80;;;;;;464695;56;21009;-24
2020/12/10 02:31:25;;;;;;;69.12;60.95;;;20.20;50.80;;;;;;459514;60;21012;-26
2020/12/10 02:31:56;;;;;;;69.57;61.85;;;20.20;50.80;;;;;;459599;57;21056;-20
2020/12/10 02:32:27;;;;;;;64.43;57.42;;;20.20;50.80;;;;;;462228;56;21019;-25
2020/12/10 02:33:03;;;;;;;66.53;59.22;;;20.10;50.70;;;;;;463818;56;21467;-26
2020/12/10 02:33:34;;;;;;;65.82;58.70;;;20.20;50.80;;;;;;480699;56;20940;-20
2020/12/10 02:34:07;;;;;;;68.20;60.70;;;20.10;50.70;;;;;;459859;60;21036;-28
2020/12/10 02:34:38;;;;;;;69.12;61.70;;;20.20;50.80;;;;;;479895;56;20990;-22
2020/12/10 02:35:11;;;;;;;65.85;58.72;;;20.20;50.90;;;;;;505433;56;21036;-21
2020/12/10 02:35:43;;;;;;;66.53;59.38;;;20.20;50.80;;;;;;461165;56;21040;-21
2020/12/10 02:36:14;;;;;;;63.90;56.95;;;20.20;50.80;;;;;;460305;56;21036;-24
2020/12/10 02:36:47;;;;;;;65.37;58.28;;;20.10;50.70;;;;;;459830;56;20980;-21
2020/12/10 02:37:18;;;;;;;64.28;57.30;;;20.20;50.80;;;;;;477384;56;21023;-21
2020/12/10 02:37:49;;;;;;;67.57;60.33;;;20.10;50.70;;;;;;462266;56;21012;-20
2020/12/10 02:38:20;;;;;;;63.22;56.53;;;20.20;50.80;;;;;;505598;56;20981;-31
2020/12/10 02:38:51;;;;;;;65.25;58.30;;;20.10;50.70;;;;;;476296;56;20980;-22
2020/12/10 02:39:22;;;;;;;66.15;59.15;;;20.20;51.30;;;;;;504073;56;20961;-23
2020/12/10 02:39:52;;;;;;;68.10;60.70;;;20.20;50.70;;;;;;480160;56;21528;-26
2020/12/10 02:40:26;;;;;;;66.32;59.10;;;20.10;50.70;;;;;;505469;56;21023;-22
2020/12/10 02:40:56;;;;;;;65.93;58.78;;;20.20;50.80;;;;;;466007;56;21007;-18
2020/12/10 02:41:27;;;;;;;66.62;59.35;;;20.10;50.70;;;;;;459519;60;21071;-20